sensor_id;sensor_type;location;lat;lon;timestamp;temperature;humidity
37910;DHT22;23741;49.446;8.754;2023-02-10T00:01:26;5.70;56.40
37910;DHT22;23741;49.446;8.754;2023-02-10T00:03:28;5.70;56.80
37910;DHT22;23741;49.446;8.754;2023-02-10T00:05:30;5.60;57.00
37910;DHT22;23741;49.446;8.754;2023-02-10T00:07:33;5.60;57.00
37910;DHT22;23741;49.446;8.754;2023-02-10T00:09:35;5.60;57.00
37910;DHT22;23741;49.446;8.754;2023-02-10T00:11:36;5.60;56.80
37910;DHT22;23741;49.446;8.754;2023-02-10T00:13:57;5.60;56.70
37910;DHT22;23741;49.446;8.754;2023-02-10T00:16:02;5.60;56.80
37910;DHT22;23741;49.446;8.754;2023-02-10T00:18:04;5.60;56.90
37910;DHT22;23741;49.446;8.754;2023-02-10T00:20:06;5.60;56.80
37910;DHT22;23741;49.446;8.754;2023-02-10T00:22:09;5.60;56.70
37910;DHT22;23741;49.446;8.754;2023-02-10T00:24:11;5.60;56.50
37910;DHT22;23741;49.446;8.754;2023-02-10T00:26:12;5.60;56.90
37910;DHT22;23741;49.446;8.754;2023-02-10T00:28:17;5.60;57.30
37910;DHT22;23741;49.446;8.754;2023-02-10T00:30:19;5.50;57.40
37910;DHT22;23741;49.446;8.754;2023-02-10T00:32:21;5.50;57.40
37910;DHT22;23741;49.446;8.754;2023-02-10T00:34:22;5.50;57.20
37910;DHT22;23741;49.446;8.754;2023-02-10T00:36:24;5.50;57.00
37910;DHT22;23741;49.446;8.754;2023-02-10T00:38:26;5.50;57.60
37910;DHT22;23741;49.446;8.754;2023-02-10T00:40:27;5.50;56.80
37910;DHT22;23741;49.446;8.754;2023-02-10T00:42:29;5.50;56.80
37910;DHT22;23741;49.446;8.754;2023-02-10T00:44:31;5.50;56.80
37910;DHT22;23741;49.446;8.754;2023-02-10T00:46:32;5.50;56.80
37910;DHT22;23741;49.446;8.754;2023-02-10T00:48:34;5.50;56.70
37910;DHT22;23741;49.446;8.754;2023-02-10T00:50:36;5.50;56.70
37910;DHT22;23741;49.446;8.754;2023-02-10T00:52:37;5.50;56.70
37910;DHT22;23741;49.446;8.754;2023-02-10T00:54:39;5.50;56.50
37910;DHT22;23741;49.446;8.754;2023-02-10T00:56:41;5.50;56.60
37910;DHT22;23741;49.446;8.754;2023-02-10T00:58:43;5.40;56.70
37910;DHT22;23741;49.446;8.754;2023-02-10T01:00:44;5.40;56.70
37910;DHT22;23741;49.446;8.754;2023-02-10T01:02:46;5.40;56.60
37910;DHT22;23741;49.446;8.754;2023-02-10T01:04:48;5.40;56.80
37910;DHT22;23741;49.446;8.754;2023-02-10T01:06:50;5.40;56.90
37910;DHT22;23741;49.446;8.754;2023-02-10T01:08:52;5.40;56.90
37910;DHT22;23741;49.446;8.754;2023-02-10T01:11:00;5.40;56.90
37910;DHT22;23741;49.446;8.754;2023-02-10T01:13:03;5.40;57.10
37910;DHT22;23741;49.446;8.754;2023-02-10T01:15:05;5.40;57.00
37910;DHT22;23741;49.446;8.754;2023-02-10T01:17:08;5.40;56.90
37910;DHT22;23741;49.446;8.754;2023-02-10T01:19:09;5.40;56.70
37910;DHT22;23741;49.446;8.754;2023-02-10T01:21:13;5.30;57.20
37910;DHT22;23741;49.446;8.754;2023-02-10T01:23:15;5.40;57.50
37910;DHT22;23741;49.446;8.754;2023-02-10T01:25:16;5.40;57.60
37910;DHT22;23741;49.446;8.754;2023-02-10T01:27:18;5.40;57.30
37910;DHT22;23741;49.446;8.754;2023-02-10T01:29:20;5.40;57.20
37910;DHT22;23741;49.446;8.754;2023-02-10T01:31:21;5.30;57.40
37910;DHT22;23741;49.446;8.754;2023-02-10T01:33:23;5.30;57.40
37910;DHT22;23741;49.446;8.754;2023-02-10T01:35:25;5.30;57.20
37910;DHT22;23741;49.446;8.754;2023-02-10T01:37:27;5.30;57.10
37910;DHT22;23741;49.446;8.754;2023-02-10T01:39:28;5.30;56.90
37910;DHT22;23741;49.446;8.754;2023-02-10T01:41:30;5.30;56.80
37910;DHT22;23741;49.446;8.754;2023-02-10T01:45:54;5.30;56.90
37910;DHT22;23741;49.446;8.754;2023-02-10T01:47:56;5.30;57.00
37910;DHT22;23741;49.446;8.754;2023-02-10T01:49:58;5.20;57.00
37910;DHT22;23741;49.446;8.754;2023-02-10T01:54:02;5.20;57.10
37910;DHT22;23741;49.446;8.754;2023-02-10T01:56:05;5.20;57.10
37910;DHT22;23741;49.446;8.754;2023-02-10T01:58:08;5.20;56.90
37910;DHT22;23741;49.446;8.754;2023-02-10T02:00:11;5.20;56.80
37910;DHT22;23741;49.446;8.754;2023-02-10T02:02:13;5.20;57.20
37910;DHT22;23741;49.446;8.754;2023-02-10T02:04:15;5.20;57.30
37910;DHT22;23741;49.446;8.754;2023-02-10T02:06:17;5.20;57.00
37910;DHT22;23741;49.446;8.754;2023-02-10T02:08:20;5.10;57.10
37910;DHT22;23741;49.446;8.754;2023-02-10T02:10:23;5.20;57.20
37910;DHT22;23741;49.446;8.754;2023-02-10T02:12:27;5.20;57.10
37910;DHT22;23741;49.446;8.754;2023-02-10T02:14:36;5.20;57.30
37910;DHT22;23741;49.446;8.754;2023-02-10T02:32:34;5.20;57.40
37910;DHT22;23741;49.446;8.754;2023-02-10T02:34:41;5.10;57.10
37910;DHT22;23741;49.446;8.754;2023-02-10T02:36:58;5.10;57.00
37910;DHT22;23741;49.446;8.754;2023-02-10T02:39:01;5.10;57.30
37910;DHT22;23741;49.446;8.754;2023-02-10T02:41:04;5.10;57.60
37910;DHT22;23741;49.446;8.754;2023-02-10T02:43:06;5.10;57.80
37910;DHT22;23741;49.446;8.754;2023-02-10T02:45:08;5.10;57.60
37910;DHT22;23741;49.446;8.754;2023-02-10T02:47:30;5.10;57.40
37910;DHT22;23741;49.446;8.754;2023-02-10T02:53:49;5.00;57.10
37910;DHT22;23741;49.446;8.754;2023-02-10T02:58:08;5.00;57.60
37910;DHT22;23741;49.446;8.754;2023-02-10T03:00:22;5.00;57.40
37910;DHT22;23741;49.446;8.754;2023-02-10T03:02:24;5.00;57.40
37910;DHT22;23741;49.446;8.754;2023-02-10T03:04:31;5.00;57.30
37910;DHT22;23741;49.446;8.754;2023-02-10T03:06:35;5.00;57.30
37910;DHT22;23741;49.446;8.754;2023-02-10T03:08:38;5.00;57.20
37910;DHT22;23741;49.446;8.754;2023-02-10T03:10:40;5.00;57.40
37910;DHT22;23741;49.446;8.754;2023-02-10T03:12:42;5.00;57.60
37910;DHT22;23741;49.446;8.754;2023-02-10T03:14:43;5.00;57.70
37910;DHT22;23741;49.446;8.754;2023-02-10T03:16:45;5.00;58.70
37910;DHT22;23741;49.446;8.754;2023-02-10T03:18:47;5.00;58.20
37910;DHT22;23741;49.446;8.754;2023-02-10T03:20:49;5.00;58.30
37910;DHT22;23741;49.446;8.754;2023-02-10T03:22:50;5.00;58.20
37910;DHT22;23741;49.446;8.754;2023-02-10T03:24:52;5.00;58.00
37910;DHT22;23741;49.446;8.754;2023-02-10T03:26:53;5.00;57.90
37910;DHT22;23741;49.446;8.754;2023-02-10T03:28:55;5.00;57.70
37910;DHT22;23741;49.446;8.754;2023-02-10T03:30:57;5.00;58.60
37910;DHT22;23741;49.446;8.754;2023-02-10T03:33:02;5.00;58.20
37910;DHT22;23741;49.446;8.754;2023-02-10T03:35:04;5.00;57.90
37910;DHT22;23741;49.446;8.754;2023-02-10T03:37:05;5.00;57.90
37910;DHT22;23741;49.446;8.754;2023-02-10T03:39:07;5.00;57.70
37910;DHT22;23741;49.446;8.754;2023-02-10T03:41:09;5.00;57.60
37910;DHT22;23741;49.446;8.754;2023-02-10T03:43:10;5.00;57.80
37910;DHT22;23741;49.446;8.754;2023-02-10T03:45:12;5.00;57.90
37910;DHT22;23741;49.446;8.754;2023-02-10T03:47:14;4.90;57.70
37910;DHT22;23741;49.446;8.754;2023-02-10T03:49:15;4.90;57.60
37910;DHT22;23741;49.446;8.754;2023-02-10T03:51:17;5.00;57.70
37910;DHT22;23741;49.446;8.754;2023-02-10T03:53:19;5.00;57.70
37910;DHT22;23741;49.446;8.754;2023-02-10T03:55:20;4.90;57.70
37910;DHT22;23741;49.446;8.754;2023-02-10T03:57:22;4.90;57.70
37910;DHT22;23741;49.446;8.754;2023-02-10T03:59:24;4.90;57.70
37910;DHT22;23741;49.446;8.754;2023-02-10T04:01:26;4.90;57.70
37910;DHT22;23741;49.446;8.754;2023-02-10T04:03:28;4.90;57.60
37910;DHT22;23741;49.446;8.754;2023-02-10T04:05:29;4.90;57.40
37910;DHT22;23741;49.446;8.754;2023-02-10T04:07:31;4.90;57.50
37910;DHT22;23741;49.446;8.754;2023-02-10T04:09:33;4.90;57.60
37910;DHT22;23741;49.446;8.754;2023-02-10T04:11:34;4.90;57.50
37910;DHT22;23741;49.446;8.754;2023-02-10T04:13:36;4.90;57.40
37910;DHT22;23741;49.446;8.754;2023-02-10T04:15:38;4.90;57.30
37910;DHT22;23741;49.446;8.754;2023-02-10T04:17:40;4.90;57.20
37910;DHT22;23741;49.446;8.754;2023-02-10T04:19:43;4.90;57.10
37910;DHT22;23741;49.446;8.754;2023-02-10T04:21:45;4.90;57.10
37910;DHT22;23741;49.446;8.754;2023-02-10T04:23:47;4.80;57.10
37910;DHT22;23741;49.446;8.754;2023-02-10T04:25:48;4.80;57.10
37910;DHT22;23741;49.446;8.754;2023-02-10T04:27:50;4.80;57.10
37910;DHT22;23741;49.446;8.754;2023-02-10T04:29:52;4.80;57.10
37910;DHT22;23741;49.446;8.754;2023-02-10T04:31:53;4.80;57.10
37910;DHT22;23741;49.446;8.754;2023-02-10T04:33:55;4.80;57.10
37910;DHT22;23741;49.446;8.754;2023-02-10T04:35:57;4.80;57.90
37910;DHT22;23741;49.446;8.754;2023-02-10T04:37:59;4.70;57.20
37910;DHT22;23741;49.446;8.754;2023-02-10T04:40:00;4.70;57.10
37910;DHT22;23741;49.446;8.754;2023-02-10T04:42:02;4.70;57.20
37910;DHT22;23741;49.446;8.754;2023-02-10T04:44:04;4.70;57.20
37910;DHT22;23741;49.446;8.754;2023-02-10T04:46:07;4.70;57.40
37910;DHT22;23741;49.446;8.754;2023-02-10T04:48:09;4.70;57.40
37910;DHT22;23741;49.446;8.754;2023-02-10T04:50:10;4.70;57.60
37910;DHT22;23741;49.446;8.754;2023-02-10T04:52:12;4.70;57.60
37910;DHT22;23741;49.446;8.754;2023-02-10T04:54:14;4.70;57.50
37910;DHT22;23741;49.446;8.754;2023-02-10T04:56:16;4.70;58.00
37910;DHT22;23741;49.446;8.754;2023-02-10T04:58:17;4.70;57.40
37910;DHT22;23741;49.446;8.754;2023-02-10T05:00:19;4.70;57.30
37910;DHT22;23741;49.446;8.754;2023-02-10T05:02:21;4.70;57.30
37910;DHT22;23741;49.446;8.754;2023-02-10T05:04:23;4.70;57.70
37910;DHT22;23741;49.446;8.754;2023-02-10T05:06:24;4.70;57.80
37910;DHT22;23741;49.446;8.754;2023-02-10T05:08:26;4.70;57.60
37910;DHT22;23741;49.446;8.754;2023-02-10T05:10:28;4.70;57.60
37910;DHT22;23741;49.446;8.754;2023-02-10T05:12:29;4.70;57.50
37910;DHT22;23741;49.446;8.754;2023-02-10T05:14:31;4.70;57.40
37910;DHT22;23741;49.446;8.754;2023-02-10T05:16:33;4.70;57.30
37910;DHT22;23741;49.446;8.754;2023-02-10T05:18:35;4.70;57.20
37910;DHT22;23741;49.446;8.754;2023-02-10T05:20:36;4.70;57.20
37910;DHT22;23741;49.446;8.754;2023-02-10T05:22:38;4.70;57.20
37910;DHT22;23741;49.446;8.754;2023-02-10T05:24:40;4.70;57.30
37910;DHT22;23741;49.446;8.754;2023-02-10T05:26:43;4.60;57.20
37910;DHT22;23741;49.446;8.754;2023-02-10T05:28:44;4.60;57.20
37910;DHT22;23741;49.446;8.754;2023-02-10T05:30:46;4.60;57.30
37910;DHT22;23741;49.446;8.754;2023-02-10T05:32:48;4.60;57.40
37910;DHT22;23741;49.446;8.754;2023-02-10T05:34:49;4.60;57.40
37910;DHT22;23741;49.446;8.754;2023-02-10T05:36:51;4.60;57.40
37910;DHT22;23741;49.446;8.754;2023-02-10T05:38:53;4.60;57.40
37910;DHT22;23741;49.446;8.754;2023-02-10T05:41:13;4.60;57.50
37910;DHT22;23741;49.446;8.754;2023-02-10T05:43:15;4.60;57.50
37910;DHT22;23741;49.446;8.754;2023-02-10T05:45:17;4.60;57.40
37910;DHT22;23741;49.446;8.754;2023-02-10T05:47:18;4.50;57.20
37910;DHT22;23741;49.446;8.754;2023-02-10T05:49:20;4.60;57.30
37910;DHT22;23741;49.446;8.754;2023-02-10T05:51:22;4.50;57.20
37910;DHT22;23741;49.446;8.754;2023-02-10T05:53:23;4.50;57.40
37910;DHT22;23741;49.446;8.754;2023-02-10T05:55:25;4.50;57.70
37910;DHT22;23741;49.446;8.754;2023-02-10T05:57:27;4.50;57.80
37910;DHT22;23741;49.446;8.754;2023-02-10T05:59:28;4.50;57.70
37910;DHT22;23741;49.446;8.754;2023-02-10T06:01:30;4.50;57.60
37910;DHT22;23741;49.446;8.754;2023-02-10T06:03:33;4.50;57.50
37910;DHT22;23741;49.446;8.754;2023-02-10T06:05:34;4.50;57.50
37910;DHT22;23741;49.446;8.754;2023-02-10T06:07:36;4.50;57.50
37910;DHT22;23741;49.446;8.754;2023-02-10T06:09:38;4.50;57.30
37910;DHT22;23741;49.446;8.754;2023-02-10T06:11:44;4.50;57.30
37910;DHT22;23741;49.446;8.754;2023-02-10T06:13:46;4.50;57.50
37910;DHT22;23741;49.446;8.754;2023-02-10T06:15:48;4.50;57.50
37910;DHT22;23741;49.446;8.754;2023-02-10T06:17:50;4.50;57.50
37910;DHT22;23741;49.446;8.754;2023-02-10T06:19:51;4.50;57.50
37910;DHT22;23741;49.446;8.754;2023-02-10T06:21:53;4.50;57.50
37910;DHT22;23741;49.446;8.754;2023-02-10T06:23:55;4.50;57.50
37910;DHT22;23741;49.446;8.754;2023-02-10T06:25:56;4.50;57.50
37910;DHT22;23741;49.446;8.754;2023-02-10T06:28:00;4.40;57.40
37910;DHT22;23741;49.446;8.754;2023-02-10T06:30:02;4.40;57.40
37910;DHT22;23741;49.446;8.754;2023-02-10T06:32:03;4.50;57.50
37910;DHT22;23741;49.446;8.754;2023-02-10T06:34:05;4.50;57.50
37910;DHT22;23741;49.446;8.754;2023-02-10T06:36:09;4.50;57.60
37910;DHT22;23741;49.446;8.754;2023-02-10T06:38:10;4.50;57.50
37910;DHT22;23741;49.446;8.754;2023-02-10T06:40:12;4.40;58.20
37910;DHT22;23741;49.446;8.754;2023-02-10T06:42:14;4.50;58.30
37910;DHT22;23741;49.446;8.754;2023-02-10T06:44:15;4.50;58.10
37910;DHT22;23741;49.446;8.754;2023-02-10T06:46:17;4.50;57.90
37910;DHT22;23741;49.446;8.754;2023-02-10T06:48:19;4.50;57.80
37910;DHT22;23741;49.446;8.754;2023-02-10T06:50:21;4.50;57.80
37910;DHT22;23741;49.446;8.754;2023-02-10T06:52:23;4.50;57.70
37910;DHT22;23741;49.446;8.754;2023-02-10T06:54:25;4.40;57.90
37910;DHT22;23741;49.446;8.754;2023-02-10T06:56:27;4.50;58.30
37910;DHT22;23741;49.446;8.754;2023-02-10T06:58:29;4.50;58.60
37910;DHT22;23741;49.446;8.754;2023-02-10T07:00:30;4.50;58.40
37910;DHT22;23741;49.446;8.754;2023-02-10T07:02:34;4.50;58.50
37910;DHT22;23741;49.446;8.754;2023-02-10T07:04:36;4.50;58.40
37910;DHT22;23741;49.446;8.754;2023-02-10T07:06:38;4.50;58.20
37910;DHT22;23741;49.446;8.754;2023-02-10T07:08:40;4.60;58.00
37910;DHT22;23741;49.446;8.754;2023-02-10T07:10:41;4.60;58.00
37910;DHT22;23741;49.446;8.754;2023-02-10T07:12:43;4.60;57.90
37910;DHT22;23741;49.446;8.754;2023-02-10T07:14:45;4.60;57.90
37910;DHT22;23741;49.446;8.754;2023-02-10T07:16:47;4.60;58.00
37910;DHT22;23741;49.446;8.754;2023-02-10T07:18:49;4.60;58.10
37910;DHT22;23741;49.446;8.754;2023-02-10T07:20:50;4.60;58.10
37910;DHT22;23741;49.446;8.754;2023-02-10T07:22:52;4.60;58.00
37910;DHT22;23741;49.446;8.754;2023-02-10T07:24:54;4.60;58.00
37910;DHT22;23741;49.446;8.754;2023-02-10T07:26:55;4.60;58.00
37910;DHT22;23741;49.446;8.754;2023-02-10T07:28:57;4.60;57.80
37910;DHT22;23741;49.446;8.754;2023-02-10T07:30:59;4.60;57.80
37910;DHT22;23741;49.446;8.754;2023-02-10T07:33:00;4.60;57.80
37910;DHT22;23741;49.446;8.754;2023-02-10T07:35:04;4.60;58.00
37910;DHT22;23741;49.446;8.754;2023-02-10T07:37:06;4.60;58.00
37910;DHT22;23741;49.446;8.754;2023-02-10T07:39:08;4.60;58.00
37910;DHT22;23741;49.446;8.754;2023-02-10T07:41:09;4.60;58.00
37910;DHT22;23741;49.446;8.754;2023-02-10T07:43:11;4.60;58.20
37910;DHT22;23741;49.446;8.754;2023-02-10T07:45:31;4.60;58.30
37910;DHT22;23741;49.446;8.754;2023-02-10T07:47:32;4.60;58.20
37910;DHT22;23741;49.446;8.754;2023-02-10T07:49:34;4.60;58.90
37910;DHT22;23741;49.446;8.754;2023-02-10T07:51:36;4.60;58.30
37910;DHT22;23741;49.446;8.754;2023-02-10T07:53:38;4.60;58.10
37910;DHT22;23741;49.446;8.754;2023-02-10T07:55:40;4.60;58.00
37910;DHT22;23741;49.446;8.754;2023-02-10T07:57:41;4.60;58.00
37910;DHT22;23741;49.446;8.754;2023-02-10T07:59:43;4.60;58.00
37910;DHT22;23741;49.446;8.754;2023-02-10T08:01:45;4.60;58.00
37910;DHT22;23741;49.446;8.754;2023-02-10T08:03:47;4.60;58.00
37910;DHT22;23741;49.446;8.754;2023-02-10T08:05:48;4.60;58.00
37910;DHT22;23741;49.446;8.754;2023-02-10T08:07:50;4.60;58.20
37910;DHT22;23741;49.446;8.754;2023-02-10T08:09:54;4.60;58.20
37910;DHT22;23741;49.446;8.754;2023-02-10T08:11:55;4.60;58.10
37910;DHT22;23741;49.446;8.754;2023-02-10T08:13:57;4.70;58.10
37910;DHT22;23741;49.446;8.754;2023-02-10T08:15:59;4.60;58.00
37910;DHT22;23741;49.446;8.754;2023-02-10T08:18:00;4.60;58.00
37910;DHT22;23741;49.446;8.754;2023-02-10T08:20:02;4.60;58.00
37910;DHT22;23741;49.446;8.754;2023-02-10T08:22:04;4.60;58.20
37910;DHT22;23741;49.446;8.754;2023-02-10T08:24:06;4.60;58.30
37910;DHT22;23741;49.446;8.754;2023-02-10T08:26:08;4.60;58.20
37910;DHT22;23741;49.446;8.754;2023-02-10T08:28:10;4.60;58.10
37910;DHT22;23741;49.446;8.754;2023-02-10T08:30:12;4.60;58.00
37910;DHT22;23741;49.446;8.754;2023-02-10T08:32:14;4.60;58.10
37910;DHT22;23741;49.446;8.754;2023-02-10T08:34:20;4.70;58.20
37910;DHT22;23741;49.446;8.754;2023-02-10T08:36:22;4.70;58.20
37910;DHT22;23741;49.446;8.754;2023-02-10T08:38:24;4.70;58.10
37910;DHT22;23741;49.446;8.754;2023-02-10T08:40:25;4.70;58.80
37910;DHT22;23741;49.446;8.754;2023-02-10T08:42:27;4.70;58.20
37910;DHT22;23741;49.446;8.754;2023-02-10T08:44:29;4.70;58.30
37910;DHT22;23741;49.446;8.754;2023-02-10T08:46:31;4.70;58.30
37910;DHT22;23741;49.446;8.754;2023-02-10T08:48:33;4.70;58.20
37910;DHT22;23741;49.446;8.754;2023-02-10T08:50:34;4.80;58.30
37910;DHT22;23741;49.446;8.754;2023-02-10T08:52:36;4.80;58.40
37910;DHT22;23741;49.446;8.754;2023-02-10T08:54:38;4.80;58.30
37910;DHT22;23741;49.446;8.754;2023-02-10T08:56:40;4.80;58.20
37910;DHT22;23741;49.446;8.754;2023-02-10T08:58:41;4.90;58.30
37910;DHT22;23741;49.446;8.754;2023-02-10T09:00:43;4.90;58.30
37910;DHT22;23741;49.446;8.754;2023-02-10T09:02:45;4.90;58.30
37910;DHT22;23741;49.446;8.754;2023-02-10T09:04:47;4.90;58.20
37910;DHT22;23741;49.446;8.754;2023-02-10T09:06:54;5.00;58.20
37910;DHT22;23741;49.446;8.754;2023-02-10T09:08:56;5.00;58.20
37910;DHT22;23741;49.446;8.754;2023-02-10T09:10:58;5.00;58.20
37910;DHT22;23741;49.446;8.754;2023-02-10T09:12:59;5.00;58.10
37910;DHT22;23741;49.446;8.754;2023-02-10T09:15:01;5.10;58.20
37910;DHT22;23741;49.446;8.754;2023-02-10T09:17:04;5.10;58.30
37910;DHT22;23741;49.446;8.754;2023-02-10T09:19:06;5.10;58.30
37910;DHT22;23741;49.446;8.754;2023-02-10T09:21:08;5.10;58.20
37910;DHT22;23741;49.446;8.754;2023-02-10T09:23:10;5.20;58.20
37910;DHT22;23741;49.446;8.754;2023-02-10T09:25:11;5.20;58.20
37910;DHT22;23741;49.446;8.754;2023-02-10T09:27:14;5.20;58.20
37910;DHT22;23741;49.446;8.754;2023-02-10T09:29:16;5.20;58.20
37910;DHT22;23741;49.446;8.754;2023-02-10T09:31:18;5.30;58.30
37910;DHT22;23741;49.446;8.754;2023-02-10T09:33:20;5.30;58.20
37910;DHT22;23741;49.446;8.754;2023-02-10T09:35:22;5.30;58.20
37910;DHT22;23741;49.446;8.754;2023-02-10T09:37:24;5.40;58.20
37910;DHT22;23741;49.446;8.754;2023-02-10T09:39:26;5.40;58.20
37910;DHT22;23741;49.446;8.754;2023-02-10T09:45:43;5.50;58.30
37910;DHT22;23741;49.446;8.754;2023-02-10T09:47:49;5.50;58.30
37910;DHT22;23741;49.446;8.754;2023-02-10T09:54:23;5.70;58.40
37910;DHT22;23741;49.446;8.754;2023-02-10T09:56:25;5.70;58.40
37910;DHT22;23741;49.446;8.754;2023-02-10T09:58:35;5.80;58.40
37910;DHT22;23741;49.446;8.754;2023-02-10T10:00:40;5.80;58.40
37910;DHT22;23741;49.446;8.754;2023-02-10T10:02:45;5.90;58.40
37910;DHT22;23741;49.446;8.754;2023-02-10T10:04:48;5.90;58.50
37910;DHT22;23741;49.446;8.754;2023-02-10T10:07:03;6.00;58.40
37910;DHT22;23741;49.446;8.754;2023-02-10T10:13:42;6.20;58.40
37910;DHT22;23741;49.446;8.754;2023-02-10T10:15:48;6.30;58.40
37910;DHT22;23741;49.446;8.754;2023-02-10T10:20:11;6.50;58.50
37910;DHT22;23741;49.446;8.754;2023-02-10T10:31:29;6.90;58.30
37910;DHT22;23741;49.446;8.754;2023-02-10T10:35:45;7.10;58.40
37910;DHT22;23741;49.446;8.754;2023-02-10T10:37:47;7.20;58.30
37910;DHT22;23741;49.446;8.754;2023-02-10T10:39:52;7.30;58.20
37910;DHT22;23741;49.446;8.754;2023-02-10T10:41:55;7.40;58.10
37910;DHT22;23741;49.446;8.754;2023-02-10T10:43:59;7.50;58.20
37910;DHT22;23741;49.446;8.754;2023-02-10T10:46:11;7.60;58.10
37910;DHT22;23741;49.446;8.754;2023-02-10T10:48:24;7.70;57.90
37910;DHT22;23741;49.446;8.754;2023-02-10T10:50:28;7.90;57.90
37910;DHT22;23741;49.446;8.754;2023-02-10T10:52:31;8.00;57.80
37910;DHT22;23741;49.446;8.754;2023-02-10T10:54:34;8.10;57.60
37910;DHT22;23741;49.446;8.754;2023-02-10T10:58:50;8.30;57.30
37910;DHT22;23741;49.446;8.754;2023-02-10T11:00:52;8.40;57.30
37910;DHT22;23741;49.446;8.754;2023-02-10T11:02:56;8.60;57.10
37910;DHT22;23741;49.446;8.754;2023-02-10T11:05:02;8.70;57.10
37910;DHT22;23741;49.446;8.754;2023-02-10T11:07:08;8.80;56.80
37910;DHT22;23741;49.446;8.754;2023-02-10T11:11:34;8.90;56.60
37910;DHT22;23741;49.446;8.754;2023-02-10T11:13:39;9.10;56.40
37910;DHT22;23741;49.446;8.754;2023-02-10T11:15:42;9.20;56.30
37910;DHT22;23741;49.446;8.754;2023-02-10T11:17:45;9.30;56.30
37910;DHT22;23741;49.446;8.754;2023-02-10T11:19:54;9.30;56.20
37910;DHT22;23741;49.446;8.754;2023-02-10T11:21:56;9.50;56.10
37910;DHT22;23741;49.446;8.754;2023-02-10T11:23:58;9.60;56.00
37910;DHT22;23741;49.446;8.754;2023-02-10T11:26:04;9.70;55.80
37910;DHT22;23741;49.446;8.754;2023-02-10T11:28:14;9.80;55.70
37910;DHT22;23741;49.446;8.754;2023-02-10T11:30:53;9.90;55.40
37910;DHT22;23741;49.446;8.754;2023-02-10T11:32:45;10.00;55.30
37910;DHT22;23741;49.446;8.754;2023-02-10T11:34:47;10.10;55.40
37910;DHT22;23741;49.446;8.754;2023-02-10T11:36:50;10.20;55.20
37910;DHT22;23741;49.446;8.754;2023-02-10T11:38:58;10.20;54.90
37910;DHT22;23741;49.446;8.754;2023-02-10T11:41:02;10.30;55.00
37910;DHT22;23741;49.446;8.754;2023-02-10T11:43:10;10.40;54.30
37910;DHT22;23741;49.446;8.754;2023-02-10T11:47:16;10.50;54.40
37910;DHT22;23741;49.446;8.754;2023-02-10T11:49:18;10.50;54.40
37910;DHT22;23741;49.446;8.754;2023-02-10T11:51:20;10.60;54.20
37910;DHT22;23741;49.446;8.754;2023-02-10T11:53:25;10.60;54.20
37910;DHT22;23741;49.446;8.754;2023-02-10T11:56:01;10.70;54.20
37910;DHT22;23741;49.446;8.754;2023-02-10T11:57:58;10.80;54.10
37910;DHT22;23741;49.446;8.754;2023-02-10T12:00:28;10.80;53.90
37910;DHT22;23741;49.446;8.754;2023-02-10T12:06:51;11.00;53.30
37910;DHT22;23741;49.446;8.754;2023-02-10T12:23:43;11.00;52.80
37910;DHT22;23741;49.446;8.754;2023-02-10T12:34:28;11.00;52.90
37910;DHT22;23741;49.446;8.754;2023-02-10T12:40:58;11.00;52.70
37910;DHT22;23741;49.446;8.754;2023-02-10T12:45:19;11.00;52.60
37910;DHT22;23741;49.446;8.754;2023-02-10T12:54:13;11.00;52.60
37910;DHT22;23741;49.446;8.754;2023-02-10T12:58:46;11.00;52.70
37910;DHT22;23741;49.446;8.754;2023-02-10T13:05:17;11.20;52.40
37910;DHT22;23741;49.446;8.754;2023-02-10T13:07:30;11.20;52.50
37910;DHT22;23741;49.446;8.754;2023-02-10T13:12:18;11.30;52.60
37910;DHT22;23741;49.446;8.754;2023-02-10T13:14:23;11.30;52.50
37910;DHT22;23741;49.446;8.754;2023-02-10T13:16:28;11.40;52.60
37910;DHT22;23741;49.446;8.754;2023-02-10T13:18:31;11.40;52.50
37910;DHT22;23741;49.446;8.754;2023-02-10T13:24:42;11.50;52.60
37910;DHT22;23741;49.446;8.754;2023-02-10T13:26:57;11.60;52.70
37910;DHT22;23741;49.446;8.754;2023-02-10T13:29:05;11.60;52.70
37910;DHT22;23741;49.446;8.754;2023-02-10T13:33:21;11.70;52.50
37910;DHT22;23741;49.446;8.754;2023-02-10T13:35:26;11.80;52.50
37910;DHT22;23741;49.446;8.754;2023-02-10T13:37:38;11.80;52.40
37910;DHT22;23741;49.446;8.754;2023-02-10T13:39:49;11.80;52.50
37910;DHT22;23741;49.446;8.754;2023-02-10T13:42:03;11.80;52.30
37910;DHT22;23741;49.446;8.754;2023-02-10T13:44:05;11.80;52.20
37910;DHT22;23741;49.446;8.754;2023-02-10T13:46:14;11.90;52.30
37910;DHT22;23741;49.446;8.754;2023-02-10T13:48:24;11.90;52.30
37910;DHT22;23741;49.446;8.754;2023-02-10T13:52:51;12.00;52.50
37910;DHT22;23741;49.446;8.754;2023-02-10T13:57:25;12.10;52.20
37910;DHT22;23741;49.446;8.754;2023-02-10T13:59:34;12.10;52.00
37910;DHT22;23741;49.446;8.754;2023-02-10T14:01:40;12.10;52.20
37910;DHT22;23741;49.446;8.754;2023-02-10T14:03:42;12.20;52.50
37910;DHT22;23741;49.446;8.754;2023-02-10T14:08:14;12.20;51.90
37910;DHT22;23741;49.446;8.754;2023-02-10T14:12:25;12.20;52.00
37910;DHT22;23741;49.446;8.754;2023-02-10T14:14:34;12.10;51.90
37910;DHT22;23741;49.446;8.754;2023-02-10T14:16:38;12.10;51.60
37910;DHT22;23741;49.446;8.754;2023-02-10T14:18:42;12.10;51.60
37910;DHT22;23741;49.446;8.754;2023-02-10T14:20:44;12.10;51.70
37910;DHT22;23741;49.446;8.754;2023-02-10T14:22:49;12.10;51.60
37910;DHT22;23741;49.446;8.754;2023-02-10T14:24:51;12.10;52.20
37910;DHT22;23741;49.446;8.754;2023-02-10T14:26:55;12.00;51.60
37910;DHT22;23741;49.446;8.754;2023-02-10T14:28:58;12.00;51.80
37910;DHT22;23741;49.446;8.754;2023-02-10T14:31:01;12.00;52.40
37910;DHT22;23741;49.446;8.754;2023-02-10T14:33:05;11.90;51.80
37910;DHT22;23741;49.446;8.754;2023-02-10T14:35:17;11.90;51.60
37910;DHT22;23741;49.446;8.754;2023-02-10T14:37:30;11.90;51.80
37910;DHT22;23741;49.446;8.754;2023-02-10T14:39:31;11.80;51.60
37910;DHT22;23741;49.446;8.754;2023-02-10T14:41:34;11.80;51.80
37910;DHT22;23741;49.446;8.754;2023-02-10T14:43:37;11.70;51.90
37910;DHT22;23741;49.446;8.754;2023-02-10T14:45:40;11.70;51.60
37910;DHT22;23741;49.446;8.754;2023-02-10T14:47:42;11.60;51.60
37910;DHT22;23741;49.446;8.754;2023-02-10T14:49:47;11.60;51.50
37910;DHT22;23741;49.446;8.754;2023-02-10T14:51:50;11.50;51.50
37910;DHT22;23741;49.446;8.754;2023-02-10T14:53:52;11.50;51.70
37910;DHT22;23741;49.446;8.754;2023-02-10T14:55:55;11.40;51.80
37910;DHT22;23741;49.446;8.754;2023-02-10T14:58:02;11.40;51.90
37910;DHT22;23741;49.446;8.754;2023-02-10T15:00:04;11.40;51.90
37910;DHT22;23741;49.446;8.754;2023-02-10T15:02:16;11.30;51.70
37910;DHT22;23741;49.446;8.754;2023-02-10T15:04:18;11.30;51.80
37910;DHT22;23741;49.446;8.754;2023-02-10T15:06:21;11.20;51.70
37910;DHT22;23741;49.446;8.754;2023-02-10T15:10:41;11.20;51.80
37910;DHT22;23741;49.446;8.754;2023-02-10T15:12:45;11.20;51.90
37910;DHT22;23741;49.446;8.754;2023-02-10T15:17:00;11.20;52.00
37910;DHT22;23741;49.446;8.754;2023-02-10T15:19:03;11.20;52.10
37910;DHT22;23741;49.446;8.754;2023-02-10T15:21:23;11.20;51.90